sensor_id;sensor_type;location;lat;lon;timestamp;temperature;humidity
79356;SHT31;68825;51.978;5.654;2023-05-10T00:00:59;16.3;74.9
79356;SHT31;68825;51.978;5.654;2023-05-10T00:03:29;16.3;75.2
79356;SHT31;68825;51.978;5.654;2023-05-10T00:05:57;16.3;75.5
79356;SHT31;68825;51.978;5.654;2023-05-10T00:08:26;16.3;75.7
79356;SHT31;68825;51.978;5.654;2023-05-10T00:10:54;16.3;75.4
79356;SHT31;68825;51.978;5.654;2023-05-10T00:13:23;16.3;75.2
79356;SHT31;68825;51.978;5.654;2023-05-10T00:15:51;16.3;75.3
79356;SHT31;68825;51.978;5.654;2023-05-10T00:18:20;16.3;75.4
79356;SHT31;68825;51.978;5.654;2023-05-10T00:20:49;16.3;75.5
79356;SHT31;68825;51.978;5.654;2023-05-10T00:23:19;16.3;75.6
79356;SHT31;68825;51.978;5.654;2023-05-10T00:25:48;16.3;75.5
79356;SHT31;68825;51.978;5.654;2023-05-10T00:28:16;16.3;75.5
79356;SHT31;68825;51.978;5.654;2023-05-10T00:30:45;16.3;75.5
79356;SHT31;68825;51.978;5.654;2023-05-10T00:33:13;16.3;75.8
79356;SHT31;68825;51.978;5.654;2023-05-10T00:35:42;16.3;75.7
79356;SHT31;68825;51.978;5.654;2023-05-10T00:38:11;16.3;75.5
79356;SHT31;68825;51.978;5.654;2023-05-10T00:40:39;16.3;75.5
79356;SHT31;68825;51.978;5.654;2023-05-10T00:43:08;16.3;75.5
79356;SHT31;68825;51.978;5.654;2023-05-10T00:45:39;16.3;75.5
79356;SHT31;68825;51.978;5.654;2023-05-10T00:48:09;16.3;75.7
79356;SHT31;68825;51.978;5.654;2023-05-10T00:50:38;16.3;75.6
79356;SHT31;68825;51.978;5.654;2023-05-10T00:53:07;16.3;75.5
79356;SHT31;68825;51.978;5.654;2023-05-10T00:55:37;16.3;75.7
79356;SHT31;68825;51.978;5.654;2023-05-10T00:58:06;16.3;75.6
79356;SHT31;68825;51.978;5.654;2023-05-10T01:00:35;16.3;75.9
79356;SHT31;68825;51.978;5.654;2023-05-10T01:03:07;16.2;76.2
79356;SHT31;68825;51.978;5.654;2023-05-10T01:05:35;16.2;76.3
79356;SHT31;68825;51.978;5.654;2023-05-10T01:08:04;16.3;76.1
79356;SHT31;68825;51.978;5.654;2023-05-10T01:10:35;16.3;76.3
79356;SHT31;68825;51.978;5.654;2023-05-10T01:13:04;16.3;76.3
79356;SHT31;68825;51.978;5.654;2023-05-10T01:15:33;16.3;76.3
79356;SHT31;68825;51.978;5.654;2023-05-10T01:18:03;16.3;76.3
79356;SHT31;68825;51.978;5.654;2023-05-10T01:20:38;16.3;76.1
79356;SHT31;68825;51.978;5.654;2023-05-10T01:23:30;16.3;76.3
79356;SHT31;68825;51.978;5.654;2023-05-10T01:26:54;16.3;76.5
79356;SHT31;68825;51.978;5.654;2023-05-10T01:34:03;16.3;76.6
79356;SHT31;68825;51.978;5.654;2023-05-10T01:36:37;16.3;76.6
79356;SHT31;68825;51.978;5.654;2023-05-10T01:39:14;16.3;76.5
79356;SHT31;68825;51.978;5.654;2023-05-10T01:41:51;16.3;76.5
79356;SHT31;68825;51.978;5.654;2023-05-10T01:44:31;16.3;76.3
79356;SHT31;68825;51.978;5.654;2023-05-10T01:47:07;16.3;76.1
79356;SHT31;68825;51.978;5.654;2023-05-10T01:49:43;16.3;76.2
79356;SHT31;68825;51.978;5.654;2023-05-10T01:52:18;16.3;76.2
79356;SHT31;68825;51.978;5.654;2023-05-10T01:54:51;16.3;76.0
79356;SHT31;68825;51.978;5.654;2023-05-10T01:57:27;16.3;76.1
79356;SHT31;68825;51.978;5.654;2023-05-10T02:00:01;16.3;76.1
79356;SHT31;68825;51.978;5.654;2023-05-10T02:02:35;16.3;76.0
79356;SHT31;68825;51.978;5.654;2023-05-10T02:05:06;16.2;76.0
79356;SHT31;68825;51.978;5.654;2023-05-10T02:07:36;16.2;76.3
79356;SHT31;68825;51.978;5.654;2023-05-10T02:10:07;16.2;76.2
79356;SHT31;68825;51.978;5.654;2023-05-10T02:12:41;16.2;76.1
79356;SHT31;68825;51.978;5.654;2023-05-10T02:15:12;16.2;76.1
79356;SHT31;68825;51.978;5.654;2023-05-10T02:17:42;16.2;76.2
79356;SHT31;68825;51.978;5.654;2023-05-10T02:20:12;16.2;76.1
79356;SHT31;68825;51.978;5.654;2023-05-10T02:22:43;16.2;76.1
79356;SHT31;68825;51.978;5.654;2023-05-10T02:25:14;16.2;75.8
79356;SHT31;68825;51.978;5.654;2023-05-10T02:27:44;16.2;75.8
79356;SHT31;68825;51.978;5.654;2023-05-10T02:30:15;16.2;75.6
79356;SHT31;68825;51.978;5.654;2023-05-10T02:32:44;16.2;75.6
79356;SHT31;68825;51.978;5.654;2023-05-10T02:35:14;16.2;75.5
79356;SHT31;68825;51.978;5.654;2023-05-10T02:37:45;16.2;75.6
79356;SHT31;68825;51.978;5.654;2023-05-10T02:40:16;16.2;75.3
79356;SHT31;68825;51.978;5.654;2023-05-10T02:42:47;16.2;75.1
79356;SHT31;68825;51.978;5.654;2023-05-10T02:45:21;16.2;75.2
79356;SHT31;68825;51.978;5.654;2023-05-10T02:47:52;16.2;75.2
79356;SHT31;68825;51.978;5.654;2023-05-10T02:50:22;16.2;75.2
79356;SHT31;68825;51.978;5.654;2023-05-10T02:52:55;16.2;75.4
79356;SHT31;68825;51.978;5.654;2023-05-10T02:55:35;16.2;75.0
79356;SHT31;68825;51.978;5.654;2023-05-10T02:58:05;16.2;74.8
79356;SHT31;68825;51.978;5.654;2023-05-10T03:00:35;16.2;74.5
79356;SHT31;68825;51.978;5.654;2023-05-10T03:03:04;16.2;74.2
79356;SHT31;68825;51.978;5.654;2023-05-10T03:05:33;16.1;73.8
79356;SHT31;68825;51.978;5.654;2023-05-10T03:08:02;16.1;73.9
79356;SHT31;68825;51.978;5.654;2023-05-10T03:10:38;16.1;74.5
79356;SHT31;68825;51.978;5.654;2023-05-10T03:13:18;16.0;74.7
79356;SHT31;68825;51.978;5.654;2023-05-10T03:15:56;16.0;74.2
79356;SHT31;68825;51.978;5.654;2023-05-10T03:18:33;16.0;74.2
79356;SHT31;68825;51.978;5.654;2023-05-10T03:21:07;16.0;74.4
79356;SHT31;68825;51.978;5.654;2023-05-10T03:23:41;16.0;74.3
79356;SHT31;68825;51.978;5.654;2023-05-10T03:26:20;16.0;74.9
79356;SHT31;68825;51.978;5.654;2023-05-10T03:28:49;15.9;74.9
79356;SHT31;68825;51.978;5.654;2023-05-10T03:31:19;15.9;75.2
79356;SHT31;68825;51.978;5.654;2023-05-10T03:33:49;15.9;74.7
79356;SHT31;68825;51.978;5.654;2023-05-10T03:36:19;15.9;75.0
79356;SHT31;68825;51.978;5.654;2023-05-10T03:38:48;15.9;74.6
79356;SHT31;68825;51.978;5.654;2023-05-10T03:41:23;15.9;74.5
79356;SHT31;68825;51.978;5.654;2023-05-10T03:43:53;15.9;75.1
79356;SHT31;68825;51.978;5.654;2023-05-10T03:46:23;15.9;75.0
79356;SHT31;68825;51.978;5.654;2023-05-10T03:48:51;15.9;75.4
79356;SHT31;68825;51.978;5.654;2023-05-10T03:51:20;15.9;75.6
79356;SHT31;68825;51.978;5.654;2023-05-10T03:53:49;15.8;75.3
79356;SHT31;68825;51.978;5.654;2023-05-10T03:56:17;15.8;76.0
79356;SHT31;68825;51.978;5.654;2023-05-10T03:58:47;15.8;75.7
79356;SHT31;68825;51.978;5.654;2023-05-10T04:01:18;15.8;75.8
79356;SHT31;68825;51.978;5.654;2023-05-10T04:03:46;15.8;75.5
79356;SHT31;68825;51.978;5.654;2023-05-10T04:06:15;15.8;75.6
79356;SHT31;68825;51.978;5.654;2023-05-10T04:08:43;15.8;75.5
79356;SHT31;68825;51.978;5.654;2023-05-10T04:11:12;15.8;75.6
79356;SHT31;68825;51.978;5.654;2023-05-10T04:13:41;15.8;76.0
79356;SHT31;68825;51.978;5.654;2023-05-10T04:16:09;15.8;75.9
79356;SHT31;68825;51.978;5.654;2023-05-10T04:18:38;15.8;76.0
79356;SHT31;68825;51.978;5.654;2023-05-10T04:21:11;15.8;75.9
79356;SHT31;68825;51.978;5.654;2023-05-10T04:23:40;15.8;76.1
79356;SHT31;68825;51.978;5.654;2023-05-10T04:26:09;15.8;75.9
79356;SHT31;68825;51.978;5.654;2023-05-10T04:28:38;15.8;75.9
79356;SHT31;68825;51.978;5.654;2023-05-10T04:31:08;15.8;76.1
79356;SHT31;68825;51.978;5.654;2023-05-10T04:33:37;15.8;76.0
79356;SHT31;68825;51.978;5.654;2023-05-10T04:36:08;15.8;75.6
79356;SHT31;68825;51.978;5.654;2023-05-10T04:38:37;15.8;75.8
79356;SHT31;68825;51.978;5.654;2023-05-10T04:41:06;15.8;75.8
79356;SHT31;68825;51.978;5.654;2023-05-10T04:43:36;15.8;75.8
79356;SHT31;68825;51.978;5.654;2023-05-10T04:46:05;15.8;75.8
79356;SHT31;68825;51.978;5.654;2023-05-10T04:48:34;15.9;75.6
79356;SHT31;68825;51.978;5.654;2023-05-10T04:51:03;15.9;75.6
79356;SHT31;68825;51.978;5.654;2023-05-10T04:53:32;15.9;75.9
79356;SHT31;68825;51.978;5.654;2023-05-10T04:56:01;15.9;75.4
79356;SHT31;68825;51.978;5.654;2023-05-10T04:58:30;15.9;75.7
79356;SHT31;68825;51.978;5.654;2023-05-10T05:01:04;15.9;75.9
79356;SHT31;68825;51.978;5.654;2023-05-10T05:03:33;15.9;75.4
79356;SHT31;68825;51.978;5.654;2023-05-10T05:06:02;15.9;75.5
79356;SHT31;68825;51.978;5.654;2023-05-10T05:08:31;15.9;75.5
79356;SHT31;68825;51.978;5.654;2023-05-10T05:11:00;15.9;75.6
79356;SHT31;68825;51.978;5.654;2023-05-10T05:13:28;15.9;75.1
79356;SHT31;68825;51.978;5.654;2023-05-10T05:15:57;15.9;75.6
79356;SHT31;68825;51.978;5.654;2023-05-10T05:18:28;15.9;75.4
79356;SHT31;68825;51.978;5.654;2023-05-10T05:20:57;15.9;75.2
79356;SHT31;68825;51.978;5.654;2023-05-10T05:23:26;15.9;75.5
79356;SHT31;68825;51.978;5.654;2023-05-10T05:25:54;15.9;75.4
79356;SHT31;68825;51.978;5.654;2023-05-10T05:28:23;15.9;75.5
79356;SHT31;68825;51.978;5.654;2023-05-10T05:30:56;15.9;75.5
79356;SHT31;68825;51.978;5.654;2023-05-10T05:33:26;15.9;75.4
79356;SHT31;68825;51.978;5.654;2023-05-10T05:35:59;16.0;75.0
79356;SHT31;68825;51.978;5.654;2023-05-10T05:38:30;16.0;75.4
79356;SHT31;68825;51.978;5.654;2023-05-10T05:40:59;16.0;75.5
79356;SHT31;68825;51.978;5.654;2023-05-10T05:43:28;16.0;75.5
79356;SHT31;68825;51.978;5.654;2023-05-10T05:45:57;16.0;75.5
79356;SHT31;68825;51.978;5.654;2023-05-10T05:48:30;16.0;75.1
79356;SHT31;68825;51.978;5.654;2023-05-10T05:51:01;16.0;75.3
79356;SHT31;68825;51.978;5.654;2023-05-10T05:53:30;16.0;75.8
79356;SHT31;68825;51.978;5.654;2023-05-10T05:55:59;16.0;75.5
79356;SHT31;68825;51.978;5.654;2023-05-10T05:58:30;16.0;75.3
79356;SHT31;68825;51.978;5.654;2023-05-10T06:00:59;16.0;75.5
79356;SHT31;68825;51.978;5.654;2023-05-10T06:03:29;16.0;75.2
79356;SHT31;68825;51.978;5.654;2023-05-10T06:05:58;16.0;75.1
79356;SHT31;68825;51.978;5.654;2023-05-10T06:08:27;16.0;75.5
79356;SHT31;68825;51.978;5.654;2023-05-10T06:10:56;16.0;75.8
79356;SHT31;68825;51.978;5.654;2023-05-10T06:13:25;16.0;75.9
79356;SHT31;68825;51.978;5.654;2023-05-10T06:15:59;16.0;75.6
79356;SHT31;68825;51.978;5.654;2023-05-10T06:18:30;16.0;76.3
79356;SHT31;68825;51.978;5.654;2023-05-10T06:21:02;16.0;76.3
79356;SHT31;68825;51.978;5.654;2023-05-10T06:23:32;16.0;76.3
79356;SHT31;68825;51.978;5.654;2023-05-10T06:26:01;16.0;75.8
79356;SHT31;68825;51.978;5.654;2023-05-10T06:28:30;16.1;75.7
79356;SHT31;68825;51.978;5.654;2023-05-10T06:31:00;16.1;76.0
79356;SHT31;68825;51.978;5.654;2023-05-10T06:33:29;16.1;75.9
79356;SHT31;68825;51.978;5.654;2023-05-10T06:35:57;16.1;76.3
79356;SHT31;68825;51.978;5.654;2023-05-10T06:38:28;16.1;75.9
79356;SHT31;68825;51.978;5.654;2023-05-10T06:40:57;16.1;75.7
79356;SHT31;68825;51.978;5.654;2023-05-10T06:43:26;16.1;75.9
79356;SHT31;68825;51.978;5.654;2023-05-10T06:45:55;16.1;75.9
79356;SHT31;68825;51.978;5.654;2023-05-10T06:48:23;16.1;76.1
79356;SHT31;68825;51.978;5.654;2023-05-10T06:50:52;16.1;76.1
79356;SHT31;68825;51.978;5.654;2023-05-10T06:53:20;16.1;76.0
79356;SHT31;68825;51.978;5.654;2023-05-10T06:55:49;16.0;76.2
79356;SHT31;68825;51.978;5.654;2023-05-10T06:58:19;16.0;76.4
79356;SHT31;68825;51.978;5.654;2023-05-10T07:00:48;16.0;76.4
79356;SHT31;68825;51.978;5.654;2023-05-10T07:03:16;16.0;76.4
79356;SHT31;68825;51.978;5.654;2023-05-10T07:05:45;16.0;76.7
79356;SHT31;68825;51.978;5.654;2023-05-10T07:08:14;16.0;76.8
79356;SHT31;68825;51.978;5.654;2023-05-10T07:10:43;16.0;76.6
79356;SHT31;68825;51.978;5.654;2023-05-10T07:13:12;16.1;76.7
79356;SHT31;68825;51.978;5.654;2023-05-10T07:15:40;16.1;76.6
79356;SHT31;68825;51.978;5.654;2023-05-10T07:18:09;16.1;76.6
79356;SHT31;68825;51.978;5.654;2023-05-10T07:20:38;16.1;76.4
79356;SHT31;68825;51.978;5.654;2023-05-10T07:23:08;16.1;76.7
79356;SHT31;68825;51.978;5.654;2023-05-10T07:25:37;16.1;75.8
79356;SHT31;68825;51.978;5.654;2023-05-10T07:28:05;16.1;76.1
79356;SHT31;68825;51.978;5.654;2023-05-10T07:30:34;16.1;76.1
79356;SHT31;68825;51.978;5.654;2023-05-10T07:33:04;16.1;75.4
79356;SHT31;68825;51.978;5.654;2023-05-10T07:35:32;16.1;75.8
79356;SHT31;68825;51.978;5.654;2023-05-10T07:38:01;16.2;76.2
79356;SHT31;68825;51.978;5.654;2023-05-10T07:40:29;16.2;75.8
79356;SHT31;68825;51.978;5.654;2023-05-10T07:42:58;16.2;76.1
79356;SHT31;68825;51.978;5.654;2023-05-10T07:45:28;16.2;76.6
79356;SHT31;68825;51.978;5.654;2023-05-10T07:47:57;16.3;75.9
79356;SHT31;68825;51.978;5.654;2023-05-10T07:50:27;16.3;74.5
79356;SHT31;68825;51.978;5.654;2023-05-10T07:52:56;16.3;74.6
79356;SHT31;68825;51.978;5.654;2023-05-10T07:55:25;16.3;73.9
79356;SHT31;68825;51.978;5.654;2023-05-10T07:57:54;16.3;74.1
79356;SHT31;68825;51.978;5.654;2023-05-10T08:00:22;16.3;73.7
79356;SHT31;68825;51.978;5.654;2023-05-10T08:02:52;16.3;74.3
79356;SHT31;68825;51.978;5.654;2023-05-10T08:05:20;16.3;73.7
79356;SHT31;68825;51.978;5.654;2023-05-10T08:07:49;16.2;73.6
79356;SHT31;68825;51.978;5.654;2023-05-10T08:10:17;16.2;73.2
79356;SHT31;68825;51.978;5.654;2023-05-10T08:12:50;16.2;73.1
79356;SHT31;68825;51.978;5.654;2023-05-10T08:15:20;16.2;72.8
79356;SHT31;68825;51.978;5.654;2023-05-10T08:17:51;16.2;72.9
79356;SHT31;68825;51.978;5.654;2023-05-10T08:20:20;16.2;73.0
79356;SHT31;68825;51.978;5.654;2023-05-10T08:22:48;16.2;72.5
79356;SHT31;68825;51.978;5.654;2023-05-10T08:25:17;16.2;72.6
79356;SHT31;68825;51.978;5.654;2023-05-10T08:27:47;16.2;71.5
79356;SHT31;68825;51.978;5.654;2023-05-10T08:30:16;16.2;71.3
79356;SHT31;68825;51.978;5.654;2023-05-10T08:32:45;16.1;71.5
79356;SHT31;68825;51.978;5.654;2023-05-10T08:35:15;16.1;70.9
79356;SHT31;68825;51.978;5.654;2023-05-10T08:37:44;16.1;73.1
79356;SHT31;68825;51.978;5.654;2023-05-10T08:40:15;16.1;71.3
79356;SHT31;68825;51.978;5.654;2023-05-10T08:42:51;16.2;71.2
79356;SHT31;68825;51.978;5.654;2023-05-10T08:45:29;16.2;72.1
79356;SHT31;68825;51.978;5.654;2023-05-10T08:48:05;16.2;72.8
79356;SHT31;68825;51.978;5.654;2023-05-10T08:50:35;16.2;71.2
79356;SHT31;68825;51.978;5.654;2023-05-10T08:53:09;16.3;72.0
79356;SHT31;68825;51.978;5.654;2023-05-10T08:55:39;16.4;70.7
79356;SHT31;68825;51.978;5.654;2023-05-10T08:58:09;16.5;68.7
79356;SHT31;68825;51.978;5.654;2023-05-10T09:00:38;16.5;70.3
79356;SHT31;68825;51.978;5.654;2023-05-10T09:03:09;16.5;69.6
79356;SHT31;68825;51.978;5.654;2023-05-10T09:05:39;16.6;67.4
79356;SHT31;68825;51.978;5.654;2023-05-10T09:08:08;16.6;67.5
79356;SHT31;68825;51.978;5.654;2023-05-10T09:10:38;16.6;68.8
79356;SHT31;68825;51.978;5.654;2023-05-10T09:13:10;16.5;68.1
79356;SHT31;68825;51.978;5.654;2023-05-10T09:15:43;16.5;69.4
79356;SHT31;68825;51.978;5.654;2023-05-10T09:18:12;16.5;68.2
79356;SHT31;68825;51.978;5.654;2023-05-10T09:20:42;16.5;68.6
79356;SHT31;68825;51.978;5.654;2023-05-10T09:23:11;16.5;67.6
79356;SHT31;68825;51.978;5.654;2023-05-10T09:25:41;16.5;68.5
79356;SHT31;68825;51.978;5.654;2023-05-10T09:28:11;16.5;69.1
79356;SHT31;68825;51.978;5.654;2023-05-10T09:30:40;16.5;69.3
79356;SHT31;68825;51.978;5.654;2023-05-10T09:33:09;16.5;69.4
79356;SHT31;68825;51.978;5.654;2023-05-10T09:35:38;16.5;69.6
79356;SHT31;68825;51.978;5.654;2023-05-10T09:38:06;16.5;71.1
79356;SHT31;68825;51.978;5.654;2023-05-10T09:40:38;16.6;71.2
79356;SHT31;68825;51.978;5.654;2023-05-10T09:43:08;16.6;71.6
79356;SHT31;68825;51.978;5.654;2023-05-10T09:45:37;16.7;71.2
79356;SHT31;68825;51.978;5.654;2023-05-10T09:48:06;16.8;69.0
79356;SHT31;68825;51.978;5.654;2023-05-10T09:50:34;16.8;69.5
79356;SHT31;68825;51.978;5.654;2023-05-10T09:53:04;16.9;68.1
79356;SHT31;68825;51.978;5.654;2023-05-10T09:55:41;16.9;66.8
79356;SHT31;68825;51.978;5.654;2023-05-10T09:58:12;16.9;68.9
79356;SHT31;68825;51.978;5.654;2023-05-10T10:00:43;16.9;68.5
79356;SHT31;68825;51.978;5.654;2023-05-10T10:03:15;16.9;66.8
79356;SHT31;68825;51.978;5.654;2023-05-10T10:05:45;16.9;67.0
79356;SHT31;68825;51.978;5.654;2023-05-10T10:08:15;16.9;67.4
79356;SHT31;68825;51.978;5.654;2023-05-10T10:10:45;16.9;68.3
79356;SHT31;68825;51.978;5.654;2023-05-10T10:13:14;16.9;67.0
79356;SHT31;68825;51.978;5.654;2023-05-10T10:15:43;16.9;69.1
79356;SHT31;68825;51.978;5.654;2023-05-10T10:18:14;16.9;68.4
79356;SHT31;68825;51.978;5.654;2023-05-10T10:20:43;16.9;67.5
79356;SHT31;68825;51.978;5.654;2023-05-10T10:23:12;16.9;67.0
79356;SHT31;68825;51.978;5.654;2023-05-10T10:25:41;16.9;68.0
79356;SHT31;68825;51.978;5.654;2023-05-10T10:28:23;17.0;68.1
79356;SHT31;68825;51.978;5.654;2023-05-10T10:30:53;17.0;66.3
79356;SHT31;68825;51.978;5.654;2023-05-10T10:33:44;17.1;66.3
79356;SHT31;68825;51.978;5.654;2023-05-10T10:36:15;17.1;66.9
79356;SHT31;68825;51.978;5.654;2023-05-10T10:39:00;17.1;68.7
79356;SHT31;68825;51.978;5.654;2023-05-10T10:41:32;17.2;66.3
79356;SHT31;68825;51.978;5.654;2023-05-10T10:44:26;17.2;67.1
79356;SHT31;68825;51.978;5.654;2023-05-10T10:47:03;17.3;66.3
79356;SHT31;68825;51.978;5.654;2023-05-10T10:49:38;17.3;67.1
79356;SHT31;68825;51.978;5.654;2023-05-10T10:52:24;17.3;66.8
79356;SHT31;68825;51.978;5.654;2023-05-10T10:54:58;17.3;66.7
79356;SHT31;68825;51.978;5.654;2023-05-10T10:57:32;17.4;66.8
79356;SHT31;68825;51.978;5.654;2023-05-10T11:00:26;17.4;66.2
79356;SHT31;68825;51.978;5.654;2023-05-10T11:02:57;17.4;66.2
79356;SHT31;68825;51.978;5.654;2023-05-10T11:05:59;17.4;66.3
79356;SHT31;68825;51.978;5.654;2023-05-10T11:08:30;17.5;65.9
79356;SHT31;68825;51.978;5.654;2023-05-10T11:11:06;17.5;65.9
79356;SHT31;68825;51.978;5.654;2023-05-10T11:13:38;17.5;68.1
79356;SHT31;68825;51.978;5.654;2023-05-10T11:16:15;17.5;66.3
79356;SHT31;68825;51.978;5.654;2023-05-10T11:19:18;17.6;66.5
79356;SHT31;68825;51.978;5.654;2023-05-10T11:21:49;17.6;65.9
79356;SHT31;68825;51.978;5.654;2023-05-10T11:24:21;17.7;65.4
79356;SHT31;68825;51.978;5.654;2023-05-10T11:26:53;17.7;64.3
79356;SHT31;68825;51.978;5.654;2023-05-10T11:29:23;17.7;67.4
79356;SHT31;68825;51.978;5.654;2023-05-10T11:31:53;17.7;65.0
79356;SHT31;68825;51.978;5.654;2023-05-10T11:34:26;17.7;65.0
79356;SHT31;68825;51.978;5.654;2023-05-10T11:36:57;17.7;65.6
79356;SHT31;68825;51.978;5.654;2023-05-10T11:39:28;17.8;64.7
79356;SHT31;68825;51.978;5.654;2023-05-10T11:41:58;17.8;64.7
79356;SHT31;68825;51.978;5.654;2023-05-10T11:44:31;17.8;64.3
79356;SHT31;68825;51.978;5.654;2023-05-10T11:47:00;17.8;64.0
79356;SHT31;68825;51.978;5.654;2023-05-10T11:49:29;17.8;67.7
79356;SHT31;68825;51.978;5.654;2023-05-10T11:52:05;17.8;64.8
79356;SHT31;68825;51.978;5.654;2023-05-10T11:54:34;17.9;62.2
79356;SHT31;68825;51.978;5.654;2023-05-10T11:57:04;17.9;64.4
79356;SHT31;68825;51.978;5.654;2023-05-10T11:59:32;17.9;64.3
79356;SHT31;68825;51.978;5.654;2023-05-10T12:02:01;18.0;65.2
79356;SHT31;68825;51.978;5.654;2023-05-10T12:04:31;18.0;64.2
79356;SHT31;68825;51.978;5.654;2023-05-10T12:07:01;18.1;64.4
79356;SHT31;68825;51.978;5.654;2023-05-10T12:09:30;18.1;63.6
79356;SHT31;68825;51.978;5.654;2023-05-10T12:12:01;18.2;63.7
79356;SHT31;68825;51.978;5.654;2023-05-10T12:14:33;18.2;62.8
79356;SHT31;68825;51.978;5.654;2023-05-10T12:17:02;18.2;63.9
79356;SHT31;68825;51.978;5.654;2023-05-10T12:19:38;18.2;64.2
79356;SHT31;68825;51.978;5.654;2023-05-10T12:22:07;18.3;65.0
79356;SHT31;68825;51.978;5.654;2023-05-10T12:24:38;18.3;63.3
79356;SHT31;68825;51.978;5.654;2023-05-10T12:27:08;18.4;64.4
79356;SHT31;68825;51.978;5.654;2023-05-10T12:29:41;18.4;64.6
79356;SHT31;68825;51.978;5.654;2023-05-10T12:32:12;18.5;63.2
79356;SHT31;68825;51.978;5.654;2023-05-10T12:34:40;18.5;62.0
79356;SHT31;68825;51.978;5.654;2023-05-10T12:37:09;18.6;63.8
79356;SHT31;68825;51.978;5.654;2023-05-10T12:39:43;18.6;62.1
79356;SHT31;68825;51.978;5.654;2023-05-10T12:42:13;18.6;63.4
79356;SHT31;68825;51.978;5.654;2023-05-10T12:44:41;18.7;64.2
79356;SHT31;68825;51.978;5.654;2023-05-10T12:47:10;18.7;64.2
79356;SHT31;68825;51.978;5.654;2023-05-10T12:49:39;18.8;62.8
79356;SHT31;68825;51.978;5.654;2023-05-10T12:52:09;18.8;61.8
79356;SHT31;68825;51.978;5.654;2023-05-10T12:54:38;18.9;62.5
79356;SHT31;68825;51.978;5.654;2023-05-10T12:57:06;18.9;64.2
79356;SHT31;68825;51.978;5.654;2023-05-10T12:59:35;18.9;62.5
79356;SHT31;68825;51.978;5.654;2023-05-10T13:02:04;18.9;62.6
79356;SHT31;68825;51.978;5.654;2023-05-10T13:04:33;18.9;61.9
79356;SHT31;68825;51.978;5.654;2023-05-10T13:07:06;18.9;62.8
79356;SHT31;68825;51.978;5.654;2023-05-10T13:09:35;18.9;63.3
79356;SHT31;68825;51.978;5.654;2023-05-10T13:12:07;18.8;64.4
79356;SHT31;68825;51.978;5.654;2023-05-10T13:14:36;18.8;64.1
79356;SHT31;68825;51.978;5.654;2023-05-10T13:17:07;18.7;64.5
79356;SHT31;68825;51.978;5.654;2023-05-10T13:19:36;18.7;63.7
79356;SHT31;68825;51.978;5.654;2023-05-10T13:22:04;18.6;65.0
79356;SHT31;68825;51.978;5.654;2023-05-10T13:24:33;18.6;65.2
79356;SHT31;68825;51.978;5.654;2023-05-10T13:27:05;18.5;66.7
79356;SHT31;68825;51.978;5.654;2023-05-10T13:29:34;18.5;67.0
79356;SHT31;68825;51.978;5.654;2023-05-10T13:32:03;18.4;68.6
79356;SHT31;68825;51.978;5.654;2023-05-10T13:34:34;18.3;70.0
79356;SHT31;68825;51.978;5.654;2023-05-10T13:37:03;18.2;70.8
79356;SHT31;68825;51.978;5.654;2023-05-10T13:39:33;18.1;72.1
79356;SHT31;68825;51.978;5.654;2023-05-10T13:42:04;18.0;72.5
79356;SHT31;68825;51.978;5.654;2023-05-10T13:44:33;17.9;73.2
79356;SHT31;68825;51.978;5.654;2023-05-10T13:47:02;17.8;74.0
79356;SHT31;68825;51.978;5.654;2023-05-10T13:49:31;17.8;74.4
79356;SHT31;68825;51.978;5.654;2023-05-10T13:52:00;17.7;73.3
79356;SHT31;68825;51.978;5.654;2023-05-10T13:54:33;17.6;72.6
79356;SHT31;68825;51.978;5.654;2023-05-10T13:57:02;17.5;72.0
79356;SHT31;68825;51.978;5.654;2023-05-10T13:59:31;17.3;72.3
79356;SHT31;68825;51.978;5.654;2023-05-10T14:02:00;17.1;74.0
79356;SHT31;68825;51.978;5.654;2023-05-10T14:04:29;17.0;75.0
79356;SHT31;68825;51.978;5.654;2023-05-10T14:06:59;16.9;76.4
79356;SHT31;68825;51.978;5.654;2023-05-10T14:09:27;16.8;76.3
79356;SHT31;68825;51.978;5.654;2023-05-10T14:11:57;16.7;76.4
79356;SHT31;68825;51.978;5.654;2023-05-10T14:14:27;16.7;77.1
79356;SHT31;68825;51.978;5.654;2023-05-10T14:16:59;16.6;77.4
79356;SHT31;68825;51.978;5.654;2023-05-10T14:19:32;16.6;77.4
79356;SHT31;68825;51.978;5.654;2023-05-10T14:22:03;16.6;76.7
79356;SHT31;68825;51.978;5.654;2023-05-10T14:24:32;16.5;77.1
79356;SHT31;68825;51.978;5.654;2023-05-10T14:27:06;16.5;76.3
79356;SHT31;68825;51.978;5.654;2023-05-10T14:29:37;16.4;76.6
79356;SHT31;68825;51.978;5.654;2023-05-10T14:32:08;16.4;77.5
79356;SHT31;68825;51.978;5.654;2023-05-10T14:34:39;16.4;76.3
79356;SHT31;68825;51.978;5.654;2023-05-10T14:37:10;16.4;77.2
79356;SHT31;68825;51.978;5.654;2023-05-10T14:39:39;16.4;77.3
79356;SHT31;68825;51.978;5.654;2023-05-10T14:42:08;16.4;76.8
79356;SHT31;68825;51.978;5.654;2023-05-10T14:44:37;16.4;75.5
79356;SHT31;68825;51.978;5.654;2023-05-10T14:47:06;16.4;77.5
79356;SHT31;68825;51.978;5.654;2023-05-10T14:49:35;16.4;78.8
79356;SHT31;68825;51.978;5.654;2023-05-10T14:52:05;16.4;78.3
79356;SHT31;68825;51.978;5.654;2023-05-10T14:54:39;16.5;76.8
79356;SHT31;68825;51.978;5.654;2023-05-10T14:57:09;16.5;77.6
79356;SHT31;68825;51.978;5.654;2023-05-10T14:59:37;16.6;77.7
79356;SHT31;68825;51.978;5.654;2023-05-10T15:02:06;16.6;76.1
79356;SHT31;68825;51.978;5.654;2023-05-10T15:04:36;16.7;77.3
79356;SHT31;68825;51.978;5.654;2023-05-10T15:07:05;16.7;75.2
79356;SHT31;68825;51.978;5.654;2023-05-10T15:09:33;16.7;76.0
79356;SHT31;68825;51.978;5.654;2023-05-10T15:12:04;16.8;77.3
79356;SHT31;68825;51.978;5.654;2023-05-10T15:14:36;16.8;77.1
79356;SHT31;68825;51.978;5.654;2023-05-10T15:17:06;16.8;77.0
79356;SHT31;68825;51.978;5.654;2023-05-10T15:19:36;16.9;75.6
79356;SHT31;68825;51.978;5.654;2023-05-10T15:22:06;16.9;76.7
79356;SHT31;68825;51.978;5.654;2023-05-10T15:24:34;17.0;77.6
79356;SHT31;68825;51.978;5.654;2023-05-10T15:27:03;17.0;76.7
79356;SHT31;68825;51.978;5.654;2023-05-10T15:29:32;17.1;76.1
79356;SHT31;68825;51.978;5.654;2023-05-10T15:32:02;17.2;75.0
79356;SHT31;68825;51.978;5.654;2023-05-10T15:34:31;17.3;75.4
79356;SHT31;68825;51.978;5.654;2023-05-10T15:36:59;17.4;74.1
79356;SHT31;68825;51.978;5.654;2023-05-10T15:39:29;17.4;73.9
79356;SHT31;68825;51.978;5.654;2023-05-10T15:41:57;17.5;72.9
79356;SHT31;68825;51.978;5.654;2023-05-10T15:44:27;17.6;71.8
79356;SHT31;68825;51.978;5.654;2023-05-10T15:46:56;17.6;72.4
79356;SHT31;68825;51.978;5.654;2023-05-10T15:49:24;17.6;73.0
79356;SHT31;68825;51.978;5.654;2023-05-10T15:51:53;17.7;72.1
79356;SHT31;68825;51.978;5.654;2023-05-10T15:54:22;17.7;72.5
79356;SHT31;68825;51.978;5.654;2023-05-10T15:56:51;17.7;72.5
79356;SHT31;68825;51.978;5.654;2023-05-10T15:59:20;17.7;71.5
79356;SHT31;68825;51.978;5.654;2023-05-10T16:01:49;17.7;73.2
79356;SHT31;68825;51.978;5.654;2023-05-10T16:04:17;17.7;71.7
79356;SHT31;68825;51.978;5.654;2023-05-10T16:06:46;17.7;71.8
79356;SHT31;68825;51.978;5.654;2023-05-10T16:09:15;17.7;72.4
79356;SHT31;68825;51.978;5.654;2023-05-10T16:11:44;17.7;71.2
79356;SHT31;68825;51.978;5.654;2023-05-10T16:14:12;17.6;70.8
79356;SHT31;68825;51.978;5.654;2023-05-10T16:16:41;17.6;71.5
79356;SHT31;68825;51.978;5.654;2023-05-10T16:19:10;17.5;72.7
79356;SHT31;68825;51.978;5.654;2023-05-10T16:21:39;17.5;72.2
79356;SHT31;68825;51.978;5.654;2023-05-10T16:24:08;17.5;72.5
79356;SHT31;68825;51.978;5.654;2023-05-10T16:26:36;17.5;73.7
79356;SHT31;68825;51.978;5.654;2023-05-10T16:29:06;17.5;72.8